createdAt,value
2022-08-23T00:00:38.870Z,79.5
2022-08-23T00:01:52.855Z,79.5
2022-08-23T00:02:46.900Z,79.4
2022-08-23T00:03:50.830Z,79.4
2022-08-23T00:05:03.698Z,79.4
2022-08-23T00:05:58.778Z,79.4
2022-08-23T00:07:12.905Z,79.4
2022-08-23T00:08:06.779Z,79.3
2022-08-23T00:09:11.578Z,79.3
2022-08-23T00:10:18.213Z,79.2
2022-08-23T00:11:19.065Z,79.2
2022-08-23T00:12:27.861Z,79.2
2022-08-23T00:13:26.852Z,79.2
2022-08-23T00:14:31.064Z,79.2
2022-08-23T00:15:34.931Z,79.2
2022-08-23T00:16:37.098Z,79.1
2022-08-23T00:17:40.096Z,79.1
2022-08-23T00:18:42.810Z,79
2022-08-23T00:19:45.276Z,79.1
2022-08-23T00:20:49.354Z,79
2022-08-23T00:21:53.036Z,79
2022-08-23T00:22:57.046Z,79
2022-08-23T00:24:09.144Z,79
2022-08-23T00:25:11.205Z,79
2022-08-23T00:26:20.347Z,79
2022-08-23T00:27:11.096Z,79
2022-08-23T00:28:24.887Z,79
2022-08-23T00:29:19.227Z,79
2022-08-23T00:30:23.120Z,79
2022-08-23T00:31:27.027Z,79
2022-08-23T00:32:31.129Z,79
2022-08-23T00:33:35.079Z,79
2022-08-23T00:34:38.905Z,79
2022-08-23T00:35:41.893Z,79
2022-08-23T00:36:45.985Z,79
2022-08-23T00:38:00.413Z,79
2022-08-23T00:38:54.872Z,79
2022-08-23T00:39:56.633Z,79
2022-08-23T00:41:10.718Z,78.9
2022-08-23T00:42:05.600Z,78.9
2022-08-23T00:43:09.022Z,79
2022-08-23T00:44:13.813Z,78.9
2022-08-23T00:45:18.871Z,78.9
2022-08-23T00:46:21.999Z,79
2022-08-23T00:47:26.314Z,79
2022-08-23T00:48:28.888Z,78.9
2022-08-23T00:49:32.822Z,78.9
2022-08-23T00:50:36.818Z,78.8
2022-08-23T00:51:52.724Z,78.9
2022-08-23T00:52:41.857Z,78.9
2022-08-23T00:53:43.832Z,78.9
2022-08-23T00:54:47.822Z,78.8
2022-08-23T00:55:51.836Z,78.8
2022-08-23T00:56:55.872Z,78.8
2022-08-23T00:58:00.107Z,78.7
2022-08-23T00:59:01.831Z,78.7
2022-08-23T01:00:05.842Z,78.7
2022-08-23T01:01:07.838Z,78.7
2022-08-23T01:02:11.898Z,78.7
2022-08-23T01:03:16.848Z,78.6
2022-08-23T01:04:20.866Z,78.6
2022-08-23T01:05:24.842Z,78.6
2022-08-23T01:06:28.835Z,78.5
2022-08-23T01:07:32.852Z,78.5
2022-08-23T01:08:36.848Z,78.6
2022-08-23T01:09:38.879Z,78.5
2022-08-23T01:10:41.872Z,78.5
2022-08-23T01:11:45.845Z,78.5
2022-08-23T01:12:49.877Z,78.4
2022-08-23T01:13:51.853Z,78.5
2022-08-23T01:14:56.843Z,78.5
2022-08-23T01:16:00.869Z,78.5
2022-08-23T01:17:02.859Z,78.5
2022-08-23T01:18:07.850Z,78.5
2022-08-23T01:19:12.853Z,78.5
2022-08-23T01:20:16.843Z,78.5
2022-08-23T01:21:20.850Z,78.5
2022-08-23T01:22:24.890Z,78.4
2022-08-23T01:23:28.854Z,78.3
2022-08-23T01:24:57.770Z,78.3
2022-08-23T01:25:36.861Z,78.6
2022-08-23T01:26:38.859Z,78.4
2022-08-23T01:27:41.882Z,78.4
2022-08-23T01:28:45.765Z,78.4
2022-08-23T01:29:47.853Z,78.4
2022-08-23T01:30:51.854Z,78.4
2022-08-23T01:31:56.858Z,78.2
2022-08-23T01:33:00.857Z,78.3
2022-08-23T01:34:02.900Z,78.3
2022-08-23T01:35:06.903Z,78.3
2022-08-23T01:36:10.859Z,78.3
2022-08-23T01:37:14.861Z,78.3
2022-08-23T01:38:18.862Z,78.3
2022-08-23T01:39:20.894Z,78.3
2022-08-23T01:40:23.016Z,78.3
2022-08-23T01:41:24.865Z,78.2
2022-08-23T01:42:28.869Z,78.2
2022-08-23T01:43:32.867Z,78.2
2022-08-23T01:44:36.874Z,78.2
2022-08-23T01:45:39.734Z,78.2
2022-08-23T01:46:42.899Z,78.2
2022-08-23T01:47:46.867Z,78.1
2022-08-23T01:48:50.874Z,78.1
2022-08-23T01:49:54.866Z,78.1
2022-08-23T01:50:58.870Z,78.1
2022-08-23T01:52:02.913Z,78.2
2022-08-23T01:53:06.876Z,78.1
2022-08-23T01:54:10.878Z,78.2
2022-08-23T01:55:14.872Z,78.3
2022-08-23T01:56:19.025Z,78.2
2022-08-23T01:57:22.901Z,78.1
2022-08-23T01:58:26.873Z,78.2
2022-08-23T01:59:30.913Z,78.2
2022-08-23T02:00:32.885Z,78.2
2022-08-23T02:01:36.939Z,78.3
2022-08-23T02:02:38.895Z,78.1
2022-08-23T02:03:41.918Z,77.9
2022-08-23T02:04:45.877Z,77.9
2022-08-23T02:05:47.916Z,78.1
2022-08-23T02:06:51.890Z,78
2022-08-23T02:07:55.953Z,77.8
2022-08-23T02:08:59.925Z,77.8
2022-08-23T02:10:01.921Z,77.8
2022-08-23T02:11:05.886Z,77.9
2022-08-23T02:12:09.886Z,78
2022-08-23T02:13:13.891Z,78
2022-08-23T02:14:17.889Z,78
2022-08-23T02:15:21.942Z,78
2022-08-23T02:16:25.882Z,78.1
2022-08-23T02:17:29.890Z,78.4
2022-08-23T02:18:33.894Z,78.2
2022-08-23T02:19:38.903Z,78
2022-08-23T02:20:41.924Z,77.9
2022-08-23T02:21:45.901Z,77.9
2022-08-23T02:22:49.897Z,77.8
2022-08-23T02:23:53.897Z,77.8
2022-08-23T02:24:57.893Z,77.9
2022-08-23T02:26:01.945Z,77.9
2022-08-23T02:27:05.899Z,77.9
2022-08-23T02:28:09.908Z,77.9
2022-08-23T02:29:13.909Z,77.9
2022-08-23T02:30:17.911Z,77.9
2022-08-23T02:31:22.129Z,77.9
2022-08-23T02:32:27.041Z,77.9
2022-08-23T02:33:29.906Z,78.2
2022-08-23T02:34:33.905Z,78.3
2022-08-23T02:35:38.909Z,78.2
2022-08-23T02:36:41.947Z,78.1
2022-08-23T02:37:45.906Z,78.2
2022-08-23T02:38:49.914Z,78
2022-08-23T02:39:51.942Z,78.2
2022-08-23T02:41:00.916Z,78.2
2022-08-23T02:42:01.150Z,78.4
2022-08-23T02:43:04.914Z,77.9
2022-08-23T02:44:08.922Z,78.2
2022-08-23T02:45:12.923Z,78.3
2022-08-23T02:46:16.928Z,78.5
2022-08-23T02:47:20.968Z,78.4
2022-08-23T02:48:24.921Z,78.5
2022-08-23T02:49:28.926Z,78.2
2022-08-23T02:50:32.920Z,78.1
2022-08-23T02:51:36.922Z,78.1
2022-08-23T02:52:39.138Z,78.4
2022-08-23T02:53:41.926Z,78.2
2022-08-23T02:54:43.926Z,78.4
2022-08-23T02:55:48.931Z,77.9
2022-08-23T02:56:52.933Z,78.1
2022-08-23T02:57:57.044Z,78.2
2022-08-23T02:59:00.932Z,78.2
2022-08-23T03:00:04.941Z,77.8
2022-08-23T03:01:08.936Z,77.8
2022-08-23T03:02:12.955Z,78.1
2022-08-23T03:03:16.945Z,78.3
2022-08-23T03:04:18.931Z,78.2
2022-08-23T03:05:22.935Z,78.3
2022-08-23T03:06:27.018Z,78.2
2022-08-23T03:07:30.938Z,78.1
2022-08-23T03:08:34.934Z,78
2022-08-23T03:09:38.947Z,77.7
2022-08-23T03:10:41.974Z,77.6
2022-08-23T03:11:43.939Z,77.8
2022-08-23T03:12:48.980Z,77.9
2022-08-23T03:13:52.940Z,77.9
2022-08-23T03:14:56.959Z,77.8
2022-08-23T03:16:01.283Z,77.5
2022-08-23T03:17:04.952Z,77.7
2022-08-23T03:18:08.951Z,77.5
2022-08-23T03:19:12.944Z,77.4
2022-08-23T03:20:16.964Z,77.6
2022-08-23T03:21:21.010Z,77.9
2022-08-23T03:22:24.970Z,78.1
2022-08-23T03:23:29.017Z,77.8
2022-08-23T03:24:30.954Z,77.6
2022-08-23T03:25:34.945Z,77.5
2022-08-23T03:26:39.013Z,77.4
2022-08-23T03:27:44.878Z,77.4
2022-08-23T03:28:43.989Z,77.5
2022-08-23T03:29:47.962Z,77.5
2022-08-23T03:30:51.954Z,77.5
2022-08-23T03:32:58.081Z,77.4
2022-08-23T03:34:02.117Z,77.4
2022-08-23T03:35:04.093Z,77.4
2022-08-23T03:36:07.131Z,77.4
2022-08-23T03:37:09.086Z,77.6
2022-08-23T03:38:13.081Z,77.7
2022-08-23T03:39:17.130Z,77.5
2022-08-23T03:40:21.170Z,77.3
2022-08-23T03:41:25.094Z,77.3
2022-08-23T03:42:31.190Z,77.9
2022-08-23T03:43:33.093Z,77.9
2022-08-23T03:44:37.132Z,77.7
2022-08-23T03:45:41.106Z,77.7
2022-08-23T03:46:45.091Z,77.7
2022-08-23T03:47:49.084Z,77.4
2022-08-23T03:48:53.093Z,77.3
2022-08-23T03:49:55.126Z,77.4
2022-08-23T03:50:59.140Z,77.4
2022-08-23T03:52:04.147Z,77.6
2022-08-23T03:53:07.090Z,77.5
2022-08-23T03:54:09.096Z,77.5
2022-08-23T03:55:13.102Z,77.3
2022-08-23T03:56:17.109Z,77.4
2022-08-23T03:57:21.135Z,77.6
2022-08-23T03:58:25.104Z,77.6
2022-08-23T03:59:29.140Z,77.4
2022-08-23T04:00:31.084Z,77.4
2022-08-23T04:01:35.143Z,77.8
2022-08-23T04:02:39.127Z,77.9
2022-08-23T04:03:43.100Z,77.6
2022-08-23T04:04:47.108Z,77.6
2022-08-23T04:05:51.128Z,77.6
2022-08-23T04:06:53.112Z,77.8
2022-08-23T04:07:55.264Z,77.7
2022-08-23T04:08:57.114Z,77.4
2022-08-23T04:10:01.888Z,77.8
2022-08-23T04:11:05.122Z,77.7
2022-08-23T04:12:11.986Z,77.8
2022-08-23T04:13:13.118Z,77.5
2022-08-23T04:14:17.157Z,77.5
2022-08-23T04:15:21.121Z,77.5
2022-08-23T04:16:25.115Z,77.7
2022-08-23T04:17:32.162Z,77.9
2022-08-23T04:18:33.157Z,77.9
2022-08-23T04:19:35.143Z,78
2022-08-23T04:20:39.157Z,77.8
2022-08-23T04:21:43.120Z,77.6
2022-08-23T04:22:45.946Z,77.7
2022-08-23T04:23:49.164Z,77.7
2022-08-23T04:24:53.141Z,77.5
2022-08-23T04:25:57.146Z,77.4
2022-08-23T04:27:01.182Z,77.7
2022-08-23T04:28:05.141Z,77.5
2022-08-23T04:29:07.123Z,77.6
2022-08-23T04:30:11.145Z,77.6
2022-08-23T04:31:13.127Z,77.5
2022-08-23T04:32:26.589Z,77.4
2022-08-23T04:33:21.383Z,77.5
2022-08-23T04:34:25.137Z,77.7
2022-08-23T04:35:29.135Z,77.6
2022-08-23T04:36:34.621Z,77.6
2022-08-23T04:37:37.173Z,77.7
2022-08-23T04:38:41.139Z,77.6
2022-08-23T04:39:45.223Z,77.7
2022-08-23T04:40:49.144Z,77.7
2022-08-23T04:41:53.136Z,77.7
2022-08-23T04:42:57.149Z,77.8
2022-08-23T04:44:01.185Z,77.6
2022-08-23T04:45:04.173Z,77.7
2022-08-23T04:46:09.146Z,77.6
2022-08-23T04:47:13.141Z,77.7
2022-08-23T04:48:15.140Z,77.6
2022-08-23T04:49:19.174Z,77.7
2022-08-23T04:50:21.147Z,77.7
2022-08-23T04:51:25.145Z,77.8
2022-08-23T04:52:29.155Z,77.8
2022-08-23T04:53:33.145Z,77.7
2022-08-23T04:54:37.183Z,77.7
2022-08-23T04:55:41.175Z,77.7
2022-08-23T04:56:45.147Z,77.7
2022-08-23T04:57:49.155Z,77.7
2022-08-23T04:58:53.161Z,77.9
2022-08-23T04:59:57.181Z,77.8
2022-08-23T05:01:03.683Z,77.9
2022-08-23T05:02:05.149Z,77.8
2022-08-23T05:03:09.158Z,77.8
2022-08-23T05:04:13.154Z,77.7
2022-08-23T05:05:17.155Z,77.8
2022-08-23T05:06:21.166Z,77.8
2022-08-23T05:07:33.802Z,77.9
2022-08-23T05:08:29.163Z,77.9
2022-08-23T05:09:33.228Z,77.9
2022-08-23T05:10:37.164Z,77.8
2022-08-23T05:11:41.197Z,77.9
2022-08-23T05:12:45.167Z,77.9
2022-08-23T05:13:49.208Z,77.9
2022-08-23T05:14:51.161Z,77.9
2022-08-23T05:15:55.162Z,77.9
2022-08-23T05:16:59.162Z,77.9
2022-08-23T05:18:04.182Z,78
2022-08-23T05:19:07.202Z,78.1
2022-08-23T05:20:11.194Z,78.1
2022-08-23T05:21:15.166Z,78.2
2022-08-23T05:22:17.170Z,78.3
2022-08-23T05:23:23.398Z,78.3
2022-08-23T05:24:23.163Z,78.3
2022-08-23T05:25:27.175Z,78.3
2022-08-23T05:26:31.203Z,78.3
2022-08-23T05:27:35.175Z,78.3
2022-08-23T05:28:39.175Z,78.3
2022-08-23T05:29:43.200Z,78.3
2022-08-23T05:30:47.897Z,78.3
2022-08-23T05:31:51.199Z,78.4
2022-08-23T05:32:55.250Z,78.3
2022-08-23T05:33:59.178Z,78.4
2022-08-23T05:35:04.200Z,78.4
2022-08-23T05:36:07.179Z,78.4
2022-08-23T05:37:11.181Z,78.4
2022-08-23T05:38:20.573Z,78.5
2022-08-23T05:39:24.234Z,78.4
2022-08-23T05:40:23.288Z,78.5
2022-08-23T05:41:37.948Z,78.5
2022-08-23T05:42:31.192Z,78.5
2022-08-23T05:43:35.967Z,78.5
2022-08-23T05:44:41.011Z,78.6
2022-08-23T05:45:45.194Z,78.6
2022-08-23T05:46:47.184Z,78.6
2022-08-23T05:47:51.215Z,78.6
2022-08-23T05:48:55.195Z,78.6
2022-08-23T05:49:57.231Z,78.7
2022-08-23T05:51:01.446Z,78.7
2022-08-23T05:52:04.324Z,78.8
2022-08-23T05:53:09.192Z,78.8
2022-08-23T05:54:13.203Z,78.9
2022-08-23T05:55:17.239Z,79
2022-08-23T05:56:21.196Z,79.2
2022-08-23T05:57:25.197Z,79.1
2022-08-23T05:58:29.199Z,79.3
2022-08-23T05:59:33.194Z,79.4
2022-08-23T06:00:38.088Z,79.5
2022-08-23T06:01:42.214Z,79.6
2022-08-23T06:02:46.332Z,79.6
2022-08-23T06:03:49.901Z,79.4
2022-08-23T06:04:52.439Z,79.6
2022-08-23T06:05:52.260Z,79.8
2022-08-23T06:06:56.212Z,79.7
2022-08-23T06:08:02.982Z,79.8
2022-08-23T06:09:04.739Z,79.8
2022-08-23T06:10:04.220Z,79.8
2022-08-23T06:11:08.239Z,79.8
2022-08-23T06:12:10.206Z,79.8
2022-08-23T06:13:14.217Z,79.8
2022-08-23T06:14:18.389Z,79.8
2022-08-23T06:15:23.555Z,79.8
2022-08-23T06:16:24.253Z,79.8
2022-08-23T06:17:28.213Z,79.8
2022-08-23T06:18:32.244Z,79.9
2022-08-23T06:19:36.215Z,80.1
2022-08-23T06:20:41.299Z,80.2
2022-08-23T06:21:44.251Z,80.2
2022-08-23T06:22:48.207Z,80.2
2022-08-23T06:23:52.740Z,80.1
2022-08-23T06:24:56.505Z,80.1
2022-08-23T06:26:00.921Z,80.2
2022-08-23T06:27:02.264Z,80.2
2022-08-23T06:28:04.236Z,80.2
2022-08-23T06:29:08.284Z,80.2
2022-08-23T06:30:13.154Z,80.2
2022-08-23T06:31:16.326Z,80.3
2022-08-23T06:32:20.245Z,80.3
2022-08-23T06:33:24.243Z,80.3
2022-08-23T06:34:28.267Z,80.3
2022-08-23T06:35:39.990Z,80.2
2022-08-23T06:36:34.266Z,80.2
2022-08-23T06:37:38.231Z,80.3
2022-08-23T06:38:40.239Z,80.3
2022-08-23T06:39:44.404Z,80.3
2022-08-23T06:40:48.907Z,80.3
2022-08-23T06:41:52.230Z,80.4
2022-08-23T06:42:56.422Z,80.3
2022-08-23T06:44:00.425Z,80.3
2022-08-23T06:45:02.360Z,80.3
2022-08-23T06:46:04.250Z,80.5
2022-08-23T06:47:08.262Z,80.5
2022-08-23T06:48:14.906Z,80.6
2022-08-23T06:49:16.240Z,80.5
2022-08-23T06:50:20.241Z,80.5
2022-08-23T06:51:24.243Z,80.5
2022-08-23T06:52:28.282Z,80.4
2022-08-23T06:53:32.241Z,80.5
2022-08-23T06:54:36.242Z,80.7
2022-08-23T06:55:40.629Z,80.6
2022-08-23T06:56:44.247Z,80.5
2022-08-23T06:57:48.281Z,80.5
2022-08-23T06:58:52.285Z,80.5
2022-08-23T06:59:56.255Z,80.6
2022-08-23T07:01:03.127Z,80.7
2022-08-23T07:02:02.372Z,80.7
2022-08-23T07:03:04.634Z,80.7
2022-08-23T07:04:07.254Z,80.6
2022-08-23T07:05:11.259Z,80.5
2022-08-23T07:06:13.307Z,80.5
2022-08-23T07:07:15.263Z,80.5
2022-08-23T07:08:17.258Z,80.6
2022-08-23T07:09:22.139Z,80.6
2022-08-23T07:10:25.329Z,80.6
2022-08-23T07:11:29.307Z,80.7
2022-08-23T07:12:33.263Z,80.6
2022-08-23T07:13:37.270Z,80.6
2022-08-23T07:14:41.272Z,80.7
2022-08-23T07:15:43.469Z,80.8
2022-08-23T07:16:45.569Z,80.8
2022-08-23T07:17:49.268Z,80.7
2022-08-23T07:18:53.297Z,80.7
2022-08-23T07:19:57.271Z,80.7
2022-08-23T07:21:02.800Z,80.8
2022-08-23T07:22:05.317Z,80.7
2022-08-23T07:23:09.313Z,80.7
2022-08-23T07:24:13.276Z,80.7
2022-08-23T07:25:17.295Z,80.8
2022-08-23T07:26:21.276Z,80.8
2022-08-23T07:27:25.316Z,80.9
2022-08-23T07:28:29.277Z,80.8
2022-08-23T07:29:33.274Z,80.8
2022-08-23T07:30:37.704Z,80.8
2022-08-23T07:31:41.336Z,80.8
2022-08-23T07:32:45.311Z,80.9
2022-08-23T07:33:49.285Z,80.9
2022-08-23T07:34:53.284Z,80.9
2022-08-23T07:35:57.293Z,80.9
2022-08-23T07:37:01.664Z,81
2022-08-23T07:38:05.284Z,81.1
2022-08-23T07:39:09.331Z,81.1
2022-08-23T07:40:15.881Z,81.1
2022-08-23T07:41:15.288Z,81
2022-08-23T07:42:23.746Z,81.1
2022-08-23T07:43:23.464Z,81.2
2022-08-23T07:44:27.478Z,81.2
2022-08-23T07:45:31.300Z,81.3
2022-08-23T07:46:35.341Z,81.4
2022-08-23T07:47:39.290Z,81.3
2022-08-23T07:48:54.006Z,81.2
2022-08-23T07:49:47.289Z,81.2
2022-08-23T07:50:56.074Z,81.3
2022-08-23T07:51:55.294Z,81.5
2022-08-23T07:52:59.298Z,81.4
2022-08-23T07:54:04.957Z,81.2
2022-08-23T07:55:07.328Z,81.3
2022-08-23T07:56:11.295Z,81.3
2022-08-23T07:57:15.296Z,81.3
2022-08-23T07:58:19.291Z,81.2
2022-08-23T07:59:23.496Z,81.2
2022-08-23T08:00:27.305Z,81.3
2022-08-23T08:01:31.341Z,81.4
2022-08-23T08:02:35.380Z,81.5
2022-08-23T08:03:39.298Z,81.5
2022-08-23T08:04:43.859Z,81.5
2022-08-23T08:05:47.311Z,81.4
2022-08-23T08:07:10.567Z,81.4
2022-08-23T08:07:55.403Z,81.4
2022-08-23T08:08:59.315Z,81.6
2022-08-23T08:10:04.345Z,81.5
2022-08-23T08:11:07.360Z,81.4
2022-08-23T08:12:11.311Z,81.3
2022-08-23T08:13:15.980Z,81.3
2022-08-23T08:14:17.319Z,81.3
2022-08-23T08:15:19.385Z,81.4
2022-08-23T08:16:23.397Z,81.5
2022-08-23T08:17:27.618Z,81.6
2022-08-23T08:18:31.323Z,81.6
2022-08-23T08:19:35.342Z,81.5
2022-08-23T08:20:37.336Z,81.5
2022-08-23T08:21:42.271Z,81.5
2022-08-23T08:22:47.565Z,81.5
2022-08-23T08:23:45.329Z,81.5
2022-08-23T08:26:58.017Z,81.5
2022-08-23T08:29:20.093Z,81.5
2022-08-23T08:30:24.082Z,81.5
2022-08-23T08:31:28.131Z,81.5
2022-08-23T08:32:30.098Z,81.6
2022-08-23T08:33:34.277Z,81.6
2022-08-23T08:34:38.081Z,81.6
2022-08-23T08:35:42.104Z,81.6
2022-08-23T08:36:44.086Z,81.6
2022-08-23T08:37:48.081Z,81.7
2022-08-23T08:38:54.344Z,81.6
2022-08-23T08:39:56.213Z,81.5
2022-08-23T08:41:00.086Z,81.5
2022-08-23T08:42:05.154Z,81.5
2022-08-23T08:43:08.086Z,81.5
2022-08-23T08:44:16.207Z,81.4
2022-08-23T08:45:16.095Z,81.5
2022-08-23T08:46:20.123Z,81.5
2022-08-23T08:47:24.097Z,81.5
2022-08-23T08:48:28.115Z,81.4
2022-08-23T08:49:32.092Z,81.4
2022-08-23T08:50:36.090Z,81.4
2022-08-23T08:51:40.094Z,81.5
2022-08-23T08:52:42.147Z,81.5
2022-08-23T08:53:46.102Z,81.5
2022-08-23T08:54:48.413Z,81.5
2022-08-23T08:55:52.917Z,81.5
2022-08-23T08:56:56.125Z,81.5
2022-08-23T08:58:00.404Z,81.5
2022-08-23T08:59:04.100Z,81.4
2022-08-23T09:00:18.471Z,81.4
2022-08-23T09:01:13.114Z,81.4
2022-08-23T09:02:32.040Z,81.4
2022-08-23T09:03:20.219Z,81.4
2022-08-23T09:04:24.106Z,81.4
2022-08-23T09:05:28.103Z,81.4
2022-08-23T09:06:32.103Z,81.4
2022-08-23T09:07:36.112Z,81.4
2022-08-23T09:08:40.106Z,81.4
2022-08-23T09:09:44.109Z,81.5
2022-08-23T09:10:48.123Z,81.5
2022-08-23T09:11:52.107Z,81.5
2022-08-23T09:12:56.153Z,81.6
2022-08-23T09:14:00.118Z,81.5
2022-08-23T09:15:04.125Z,81.4
2022-08-23T09:16:08.203Z,81.4
2022-08-23T09:17:13.130Z,81.5
2022-08-23T09:18:16.120Z,81.5
2022-08-23T09:19:18.118Z,81.4
2022-08-23T09:20:20.120Z,81.5
2022-08-23T09:21:24.127Z,81.6
2022-08-23T09:22:28.131Z,81.5
2022-08-23T09:23:32.118Z,81.5
2022-08-23T09:24:36.143Z,81.6
2022-08-23T09:25:40.123Z,81.6
2022-08-23T09:26:43.497Z,81.6
2022-08-23T09:27:46.163Z,81.6
2022-08-23T09:28:50.133Z,81.6
2022-08-23T09:29:54.117Z,81.6
2022-08-23T09:30:58.209Z,81.6
2022-08-23T09:32:02.127Z,81.6
2022-08-23T09:33:06.550Z,81.6
2022-08-23T09:34:08.548Z,81.6
2022-08-23T09:35:12.558Z,81.7
2022-08-23T09:36:16.559Z,81.7
2022-08-23T09:37:21.560Z,81.6
2022-08-23T09:38:25.552Z,81.7
2022-08-23T09:39:30.530Z,81.7
2022-08-23T09:40:32.551Z,81.7
2022-08-23T09:41:36.554Z,81.7
2022-08-23T09:42:40.568Z,81.7
2022-08-23T09:43:44.572Z,81.7
2022-08-23T09:44:48.564Z,81.6
2022-08-23T09:45:52.560Z,81.6
2022-08-23T09:46:56.584Z,81.5
2022-08-23T09:48:00.782Z,81.6
2022-08-23T09:49:02.600Z,81.6
2022-08-23T09:50:06.580Z,81.7
2022-08-23T09:51:08.563Z,81.8
2022-08-23T09:52:12.839Z,81.8
2022-08-23T09:53:16.561Z,81.7
2022-08-23T09:54:20.562Z,81.8
2022-08-23T09:55:24.615Z,81.8
2022-08-23T09:56:29.574Z,81.6
2022-08-23T09:57:32.567Z,81.4
2022-08-23T09:58:36.570Z,81.2
2022-08-23T09:59:40.571Z,81.3
2022-08-23T10:00:44.602Z,81.3
2022-08-23T10:01:48.651Z,81.4
2022-08-23T10:02:52.577Z,81.5
2022-08-23T10:03:56.577Z,81.5
2022-08-23T10:05:00.696Z,81.3
2022-08-23T10:06:04.609Z,81.2
2022-08-23T10:07:08.578Z,81.5
2022-08-23T10:08:12.582Z,81.4
2022-08-23T10:09:16.587Z,81.4
2022-08-23T10:10:20.589Z,81.4
2022-08-23T10:11:24.612Z,81.6
2022-08-23T10:12:29.589Z,81.9
2022-08-23T10:13:32.577Z,81.6
2022-08-23T10:14:36.586Z,81.5
2022-08-23T10:15:40.677Z,81.6
2022-08-23T10:16:44.630Z,81.8
2022-08-23T10:17:48.615Z,81.6
2022-08-23T10:18:52.589Z,81.7
2022-08-23T10:19:56.588Z,81.6
2022-08-23T10:21:00.590Z,81.4
2022-08-23T10:22:02.662Z,81.1
2022-08-23T10:23:06.628Z,80.8
2022-08-23T10:24:10.620Z,80.6
2022-08-23T10:25:14.598Z,80.5
2022-08-23T10:26:18.602Z,80.4
2022-08-23T10:27:22.622Z,80.4
2022-08-23T10:28:26.604Z,80.3
2022-08-23T10:29:30.602Z,80.3
2022-08-23T10:30:34.597Z,80.3
2022-08-23T10:31:38.603Z,80.5
2022-08-23T10:32:40.651Z,80.6
2022-08-23T10:33:44.632Z,81
2022-08-23T10:34:50.671Z,80.5
2022-08-23T10:35:50.607Z,80.5
2022-08-23T10:36:54.610Z,80.5
2022-08-23T10:37:58.657Z,80.5
2022-08-23T10:39:02.624Z,80.7
2022-08-23T10:40:06.663Z,81.3
2022-08-23T10:41:10.613Z,80.9
2022-08-23T10:42:14.610Z,80.7
2022-08-23T10:43:18.615Z,80.7
2022-08-23T10:44:22.677Z,80.8
2022-08-23T10:45:26.619Z,80.7
2022-08-23T10:46:30.625Z,80.7
2022-08-23T10:47:34.611Z,80.7
2022-08-23T10:48:38.611Z,80.9
2022-08-23T10:49:42.656Z,81.2
2022-08-23T10:50:55.437Z,80.8
2022-08-23T10:51:51.792Z,80.7
2022-08-23T10:52:54.625Z,80.8
2022-08-23T10:53:58.680Z,81.1
2022-08-23T10:55:02.669Z,81.3
2022-08-23T10:56:06.621Z,80.8
2022-08-23T10:57:10.681Z,80.9
2022-08-23T10:58:14.633Z,81.1
2022-08-23T10:59:18.627Z,81.1
2022-08-23T11:00:22.625Z,81
2022-08-23T11:01:26.784Z,81
2022-08-23T11:02:30.668Z,81.1
2022-08-23T11:03:34.640Z,81.1
2022-08-23T11:04:38.625Z,81.2
2022-08-23T11:05:42.665Z,81.3
2022-08-23T11:06:46.665Z,81.4
2022-08-23T11:07:50.645Z,81.2
2022-08-23T11:08:52.633Z,81.2
2022-08-23T11:09:56.634Z,81.4
2022-08-23T11:11:00.629Z,81.5
2022-08-23T11:12:02.693Z,81.3
2022-08-23T11:13:06.638Z,81.6
2022-08-23T11:14:10.629Z,81.4
2022-08-23T11:15:14.646Z,81.3
2022-08-23T11:16:18.637Z,81.4
2022-08-23T11:17:22.678Z,81.3
2022-08-23T11:18:24.633Z,81.5
2022-08-23T11:19:29.650Z,81.3
2022-08-23T11:20:32.673Z,81.4
2022-08-23T11:21:36.639Z,81.5
2022-08-23T11:22:40.693Z,81.4
2022-08-23T11:23:44.642Z,81.3
2022-08-23T11:24:48.644Z,81.2
2022-08-23T11:25:52.683Z,81.2
2022-08-23T11:26:56.651Z,81.1
2022-08-23T11:28:00.799Z,81
2022-08-23T11:29:02.682Z,81.1
2022-08-23T11:30:06.658Z,80.8
2022-08-23T11:31:11.799Z,80.9
2022-08-23T11:32:14.663Z,80.9
2022-08-23T11:33:16.661Z,80.8
2022-08-23T11:34:20.654Z,80.6
2022-08-23T11:35:22.659Z,80.5
2022-08-23T11:36:26.693Z,80.5
2022-08-23T11:37:30.658Z,80.4
2022-08-23T11:38:34.668Z,80.3
2022-08-23T11:39:36.654Z,80.6
2022-08-23T11:40:40.661Z,80.5
2022-08-23T11:41:44.694Z,80.3
2022-08-23T11:42:48.667Z,80.4
2022-08-23T11:43:52.676Z,80.4
2022-08-23T11:44:56.675Z,80.6
2022-08-23T11:46:00.697Z,80.6
2022-08-23T11:47:02.728Z,80.6
2022-08-23T11:48:06.680Z,80.5
2022-08-23T11:49:10.669Z,80.3
2022-08-23T11:50:14.715Z,80.2
2022-08-23T11:51:18.711Z,80.2
2022-08-23T11:52:22.679Z,80.2
2022-08-23T11:53:24.675Z,80.2
2022-08-23T11:54:29.678Z,80.2
2022-08-23T11:55:32.704Z,80.1
2022-08-23T11:56:36.674Z,80
2022-08-23T11:57:39.051Z,79.9
2022-08-23T11:58:42.681Z,80
2022-08-23T11:59:46.675Z,80.1
2022-08-23T12:00:50.703Z,80.3
2022-08-23T12:01:54.715Z,80.8
2022-08-23T12:02:58.814Z,80.9
2022-08-23T12:04:02.845Z,80.7
2022-08-23T12:05:06.989Z,80.6
2022-08-23T12:06:12.637Z,80.6
2022-08-23T12:07:14.683Z,80.5
2022-08-23T12:08:18.683Z,80.7
2022-08-23T12:09:21.075Z,80.9
2022-08-23T12:10:22.711Z,80.8
2022-08-23T12:11:27.463Z,80.6
2022-08-23T12:12:33.683Z,80.8
2022-08-23T12:13:34.682Z,81
2022-08-23T12:14:39.314Z,80.8
2022-08-23T12:15:42.939Z,80.7
2022-08-23T12:16:49.965Z,80.8
2022-08-23T12:17:56.087Z,81
2022-08-23T12:18:55.057Z,81.3
2022-08-23T12:19:58.971Z,81.2
2022-08-23T12:21:04.268Z,81
2022-08-23T12:22:06.953Z,81
2022-08-23T12:23:10.761Z,80.8
2022-08-23T12:24:14.791Z,80.8
2022-08-23T12:25:18.777Z,80.7
2022-08-23T12:26:23.290Z,80.8
2022-08-23T12:27:27.330Z,80.8
2022-08-23T12:28:31.391Z,80.9
2022-08-23T12:29:34.901Z,81
2022-08-23T12:30:42.873Z,80.8
2022-08-23T12:31:43.205Z,80.9
2022-08-23T12:32:45.177Z,81.1
2022-08-23T12:33:49.124Z,81.1
2022-08-23T12:34:53.069Z,81.1
2022-08-23T12:35:56.855Z,81
2022-08-23T12:37:01.724Z,80.9
2022-08-23T12:38:03.583Z,80.9
2022-08-23T12:39:07.517Z,80.5
2022-08-23T12:40:11.328Z,80.6
2022-08-23T12:41:14.810Z,80.4
2022-08-23T12:42:18.810Z,80.4
2022-08-23T12:43:23.082Z,80.5
2022-08-23T12:44:27.163Z,80.5
2022-08-23T12:45:30.812Z,80.7
2022-08-23T12:46:35.269Z,80.7
2022-08-23T12:47:42.825Z,80.6
2022-08-23T12:48:42.985Z,80.7
2022-08-23T12:49:47.119Z,81.1
2022-08-23T12:50:50.913Z,80.8
2022-08-23T12:51:55.240Z,80.8
2022-08-23T12:52:59.398Z,80.7
2022-08-23T12:54:03.345Z,80.6
2022-08-23T12:55:07.314Z,81.2
2022-08-23T12:56:11.284Z,80.8
2022-08-23T12:57:15.435Z,80.6
2022-08-23T12:58:20.040Z,80.6
2022-08-23T12:59:23.436Z,80.8
2022-08-23T13:00:27.742Z,80.7
2022-08-23T13:01:31.006Z,80.5
2022-08-23T13:02:33.495Z,80.4
2022-08-23T13:03:38.711Z,80.4
2022-08-23T13:04:41.352Z,80.9
2022-08-23T13:05:46.005Z,80.7
2022-08-23T13:06:49.622Z,80.7
2022-08-23T13:07:53.310Z,80.6
2022-08-23T13:08:57.140Z,80.9
2022-08-23T13:10:08.382Z,80.6
2022-08-23T13:11:07.703Z,80.4
2022-08-23T13:12:06.888Z,80.5
2022-08-23T13:13:10.741Z,80.6
2022-08-23T13:14:14.775Z,80.6
2022-08-23T13:15:18.737Z,80.5
2022-08-23T13:16:26.846Z,80.6
2022-08-23T13:17:24.739Z,80.5
2022-08-23T13:18:26.741Z,80.6
2022-08-23T13:19:30.776Z,80.4
2022-08-23T13:20:34.742Z,80.5
2022-08-23T13:21:39.899Z,80.2
2022-08-23T13:22:42.748Z,80.2
2022-08-23T13:23:47.877Z,80.1
2022-08-23T13:25:01.212Z,80
2022-08-23T13:25:52.751Z,80
2022-08-23T13:26:56.742Z,80
2022-08-23T13:28:06.073Z,80.2
2022-08-23T13:29:08.553Z,81.4
2022-08-23T13:30:08.794Z,80.7
2022-08-23T13:31:12.816Z,80.3
2022-08-23T13:32:16.754Z,80.6
2022-08-23T13:33:20.753Z,81.3
2022-08-23T13:34:24.766Z,81.1
2022-08-23T13:35:29.802Z,80.8
2022-08-23T13:36:32.785Z,80.5
2022-08-23T13:37:36.747Z,80.5
2022-08-23T13:38:40.751Z,80.8
2022-08-23T13:39:44.789Z,80.8
2022-08-23T13:40:48.801Z,81.4
2022-08-23T13:41:52.751Z,81
2022-08-23T13:42:56.893Z,80.9
2022-08-23T13:44:00.762Z,81.1
2022-08-23T13:45:02.793Z,81.1
2022-08-23T13:46:06.930Z,80.6
2022-08-23T13:47:10.765Z,80.7
2022-08-23T13:48:14.771Z,81
2022-08-23T13:49:18.765Z,81.2
2022-08-23T13:50:22.764Z,81
2022-08-23T13:51:26.764Z,81.4
2022-08-23T13:53:10.060Z,81
2022-08-23T13:53:32.765Z,81.2
2022-08-23T13:54:36.775Z,81
2022-08-23T13:55:40.783Z,80.9
2022-08-23T13:56:44.802Z,81
2022-08-23T13:57:48.779Z,81
2022-08-23T13:58:52.780Z,80.9
2022-08-23T13:59:57.840Z,81
2022-08-23T14:01:00.890Z,81.1
2022-08-23T14:02:02.813Z,81.2
2022-08-23T14:03:06.829Z,81.4
2022-08-23T14:04:10.776Z,81.3
2022-08-23T14:05:14.854Z,81.3
2022-08-23T14:06:18.979Z,81.3
2022-08-23T14:07:22.784Z,81.3
2022-08-23T14:08:26.801Z,81.1
2022-08-23T14:09:30.789Z,81.2
2022-08-23T14:10:34.780Z,81.3
2022-08-23T14:11:38.980Z,81.2
2022-08-23T14:12:43.776Z,81.1
2022-08-23T14:13:46.790Z,81
2022-08-23T14:14:50.790Z,81.1
2022-08-23T14:15:56.679Z,81.4
2022-08-23T14:17:02.166Z,81.2